sensor_id;sensor_type;location;lat;lon;timestamp;temperature;humidity
8485;DHT22;34555;49.34829940;8.43506100;2022-08-18T00:01:49;24.90;80.00
8485;DHT22;34555;49.34829940;8.43506100;2022-08-18T00:04:15;25.00;80.00
8485;DHT22;34555;49.34829940;8.43506100;2022-08-18T00:06:41;24.90;79.90
8485;DHT22;34555;49.34829940;8.43506100;2022-08-18T00:09:08;24.90;80.00
8485;DHT22;34555;49.34829940;8.43506100;2022-08-18T00:11:41;24.90;80.00
8485;DHT22;34555;49.34829940;8.43506100;2022-08-18T00:14:12;24.90;80.00
8485;DHT22;34555;49.34829940;8.43506100;2022-08-18T00:16:38;25.00;80.30
8485;DHT22;34555;49.34829940;8.43506100;2022-08-18T00:19:03;24.90;80.20
8485;DHT22;34555;49.34829940;8.43506100;2022-08-18T00:21:29;25.00;80.30
8485;DHT22;34555;49.34829940;8.43506100;2022-08-18T00:23:54;24.90;80.30
8485;DHT22;34555;49.34829940;8.43506100;2022-08-18T00:26:20;25.00;80.40
8485;DHT22;34555;49.34829940;8.43506100;2022-08-18T00:28:46;25.00;80.40
8485;DHT22;34555;49.34829940;8.43506100;2022-08-18T00:31:12;25.00;80.10
8485;DHT22;34555;49.34829940;8.43506100;2022-08-18T00:33:37;25.00;80.00
8485;DHT22;34555;49.34829940;8.43506100;2022-08-18T00:36:03;25.00;79.70
8485;DHT22;34555;49.34829940;8.43506100;2022-08-18T00:38:29;25.00;79.60
8485;DHT22;34555;49.34829940;8.43506100;2022-08-18T00:40:55;25.00;79.50
8485;DHT22;34555;49.34829940;8.43506100;2022-08-18T00:43:45;25.10;79.50
8485;DHT22;34555;49.34829940;8.43506100;2022-08-18T00:46:18;25.10;79.50
8485;DHT22;34555;49.34829940;8.43506100;2022-08-18T00:48:44;25.00;79.50
8485;DHT22;34555;49.34829940;8.43506100;2022-08-18T00:51:21;25.00;79.40
8485;DHT22;34555;49.34829940;8.43506100;2022-08-18T00:54:00;25.00;79.40
8485;DHT22;34555;49.34829940;8.43506100;2022-08-18T00:56:33;25.00;79.40
8485;DHT22;34555;49.34829940;8.43506100;2022-08-18T01:01:51;25.00;79.40
8485;DHT22;34555;49.34829940;8.43506100;2022-08-18T01:04:25;25.00;79.40
8485;DHT22;34555;49.34829940;8.43506100;2022-08-18T01:06:59;25.10;79.50
8485;DHT22;34555;49.34829940;8.43506100;2022-08-18T01:09:26;25.10;79.50
8485;DHT22;34555;49.34829940;8.43506100;2022-08-18T01:11:52;25.10;79.50
8485;DHT22;34555;49.34829940;8.43506100;2022-08-18T01:14:17;25.10;79.50
8485;DHT22;34555;49.34829940;8.43506100;2022-08-18T01:16:47;25.10;79.50
8485;DHT22;34555;49.34829940;8.43506100;2022-08-18T01:19:32;25.10;79.30
8485;DHT22;34555;49.34829940;8.43506100;2022-08-18T01:25:18;25.00;79.40
8485;DHT22;34555;49.34829940;8.43506100;2022-08-18T01:28:05;25.00;79.40
8485;DHT22;34555;49.34829940;8.43506100;2022-08-18T01:30:31;25.10;79.50
8485;DHT22;34555;49.34829940;8.43506100;2022-08-18T01:32:58;25.00;79.40
8485;DHT22;34555;49.34829940;8.43506100;2022-08-18T01:35:26;25.00;79.40
8485;DHT22;34555;49.34829940;8.43506100;2022-08-18T01:37:53;25.10;79.10
8485;DHT22;34555;49.34829940;8.43506100;2022-08-18T01:40:21;25.10;78.90
8485;DHT22;34555;49.34829940;8.43506100;2022-08-18T01:42:47;25.00;80.00
8485;DHT22;34555;49.34829940;8.43506100;2022-08-18T01:45:15;25.10;79.10
8485;DHT22;34555;49.34829940;8.43506100;2022-08-18T01:47:42;25.10;79.10
8485;DHT22;34555;49.34829940;8.43506100;2022-08-18T01:50:08;25.00;79.00
8485;DHT22;34555;49.34829940;8.43506100;2022-08-18T01:52:35;25.10;78.80
8485;DHT22;34555;49.34829940;8.43506100;2022-08-18T01:55:02;25.00;78.80
8485;DHT22;34555;49.34829940;8.43506100;2022-08-18T01:57:28;25.00;79.20
8485;DHT22;34555;49.34829940;8.43506100;2022-08-18T01:59:54;25.00;79.20
8485;DHT22;34555;49.34829940;8.43506100;2022-08-18T02:02:25;25.00;79.10
8485;DHT22;34555;49.34829940;8.43506100;2022-08-18T02:04:53;25.00;79.00
8485;DHT22;34555;49.34829940;8.43506100;2022-08-18T02:07:20;24.90;79.30
8485;DHT22;34555;49.34829940;8.43506100;2022-08-18T02:09:46;24.90;79.30
8485;DHT22;34555;49.34829940;8.43506100;2022-08-18T02:12:12;24.90;79.50
8485;DHT22;34555;49.34829940;8.43506100;2022-08-18T02:14:38;24.90;79.40
8485;DHT22;34555;49.34829940;8.43506100;2022-08-18T02:17:06;24.90;79.50
8485;DHT22;34555;49.34829940;8.43506100;2022-08-18T02:19:44;25.00;79.40
8485;DHT22;34555;49.34829940;8.43506100;2022-08-18T02:22:15;24.90;79.30
8485;DHT22;34555;49.34829940;8.43506100;2022-08-18T02:24:41;24.90;79.50
8485;DHT22;34555;49.34829940;8.43506100;2022-08-18T02:27:09;24.80;79.90
8485;DHT22;34555;49.34829940;8.43506100;2022-08-18T02:29:35;24.80;79.80
8485;DHT22;34555;49.34829940;8.43506100;2022-08-18T02:32:02;24.90;79.90
8485;DHT22;34555;49.34829940;8.43506100;2022-08-18T02:34:27;24.90;79.40
8485;DHT22;34555;49.34829940;8.43506100;2022-08-18T02:36:53;25.00;79.40
8485;DHT22;34555;49.34829940;8.43506100;2022-08-18T02:39:18;25.00;79.40
8485;DHT22;34555;49.34829940;8.43506100;2022-08-18T02:41:44;24.90;79.50
8485;DHT22;34555;49.34829940;8.43506100;2022-08-18T02:44:10;24.80;79.90
8485;DHT22;34555;49.34829940;8.43506100;2022-08-18T02:46:37;24.90;79.50
8485;DHT22;34555;49.34829940;8.43506100;2022-08-18T02:49:03;24.90;79.60
8485;DHT22;34555;49.34829940;8.43506100;2022-08-18T02:51:29;24.80;79.70
8485;DHT22;34555;49.34829940;8.43506100;2022-08-18T02:53:55;24.90;79.50
8485;DHT22;34555;49.34829940;8.43506100;2022-08-18T02:56:27;24.90;79.40
8485;DHT22;34555;49.34829940;8.43506100;2022-08-18T02:58:59;25.00;79.20
8485;DHT22;34555;49.34829940;8.43506100;2022-08-18T03:01:28;25.00;78.80
8485;DHT22;34555;49.34829940;8.43506100;2022-08-18T03:03:54;25.00;78.90
8485;DHT22;34555;49.34829940;8.43506100;2022-08-18T03:06:21;25.00;78.80
8485;DHT22;34555;49.34829940;8.43506100;2022-08-18T03:08:47;25.00;78.60
8485;DHT22;34555;49.34829940;8.43506100;2022-08-18T03:11:19;25.10;78.60
8485;DHT22;34555;49.34829940;8.43506100;2022-08-18T03:13:46;25.00;78.60
8485;DHT22;34555;49.34829940;8.43506100;2022-08-18T03:16:12;25.10;78.70
8485;DHT22;34555;49.34829940;8.43506100;2022-08-18T03:18:38;25.00;78.60
8485;DHT22;34555;49.34829940;8.43506100;2022-08-18T03:21:10;25.10;78.50
8485;DHT22;34555;49.34829940;8.43506100;2022-08-18T03:23:37;25.00;78.70
8485;DHT22;34555;49.34829940;8.43506100;2022-08-18T03:26:08;25.10;78.50
8485;DHT22;34555;49.34829940;8.43506100;2022-08-18T03:28:37;25.10;78.40
8485;DHT22;34555;49.34829940;8.43506100;2022-08-18T03:31:03;25.10;78.50
8485;DHT22;34555;49.34829940;8.43506100;2022-08-18T03:33:29;25.10;78.40
8485;DHT22;34555;49.34829940;8.43506100;2022-08-18T03:35:54;25.10;78.40
8485;DHT22;34555;49.34829940;8.43506100;2022-08-18T03:38:20;25.10;78.40
8485;DHT22;34555;49.34829940;8.43506100;2022-08-18T03:40:51;25.10;78.40
8485;DHT22;34555;49.34829940;8.43506100;2022-08-18T03:43:17;25.10;78.50
8485;DHT22;34555;49.34829940;8.43506100;2022-08-18T03:45:43;25.10;78.50
8485;DHT22;34555;49.34829940;8.43506100;2022-08-18T03:48:09;25.10;78.50
8485;DHT22;34555;49.34829940;8.43506100;2022-08-18T03:50:35;25.10;78.60
8485;DHT22;34555;49.34829940;8.43506100;2022-08-18T03:53:00;25.10;78.50
8485;DHT22;34555;49.34829940;8.43506100;2022-08-18T03:55:27;25.10;78.60
8485;DHT22;34555;49.34829940;8.43506100;2022-08-18T03:58:00;25.10;78.60
8485;DHT22;34555;49.34829940;8.43506100;2022-08-18T04:00:29;25.10;78.60
8485;DHT22;34555;49.34829940;8.43506100;2022-08-18T04:02:55;25.10;78.70
8485;DHT22;34555;49.34829940;8.43506100;2022-08-18T04:05:20;25.10;78.70
8485;DHT22;34555;49.34829940;8.43506100;2022-08-18T04:07:46;25.10;78.70
8485;DHT22;34555;49.34829940;8.43506100;2022-08-18T04:10:12;25.10;78.70
8485;DHT22;34555;49.34829940;8.43506100;2022-08-18T04:12:40;25.10;78.80
8485;DHT22;34555;49.34829940;8.43506100;2022-08-18T04:15:06;25.10;79.10
8485;DHT22;34555;49.34829940;8.43506100;2022-08-18T04:17:31;25.10;79.00
8485;DHT22;34555;49.34829940;8.43506100;2022-08-18T04:19:57;25.10;79.00
8485;DHT22;34555;49.34829940;8.43506100;2022-08-18T04:22:24;25.10;78.90
8485;DHT22;34555;49.34829940;8.43506100;2022-08-18T04:24:50;25.10;78.90
8485;DHT22;34555;49.34829940;8.43506100;2022-08-18T04:27:15;25.10;79.00
8485;DHT22;34555;49.34829940;8.43506100;2022-08-18T04:29:41;25.10;79.10
8485;DHT22;34555;49.34829940;8.43506100;2022-08-18T04:32:06;25.10;79.50
8485;DHT22;34555;49.34829940;8.43506100;2022-08-18T04:34:33;25.00;79.40
8485;DHT22;34555;49.34829940;8.43506100;2022-08-18T04:36:58;25.10;79.80
8485;DHT22;34555;49.34829940;8.43506100;2022-08-18T04:39:24;25.10;79.10
8485;DHT22;34555;49.34829940;8.43506100;2022-08-18T04:41:51;25.10;79.50
8485;DHT22;34555;49.34829940;8.43506100;2022-08-18T04:44:17;25.10;78.90
8485;DHT22;34555;49.34829940;8.43506100;2022-08-18T04:46:45;25.10;79.10
8485;DHT22;34555;49.34829940;8.43506100;2022-08-18T04:49:12;25.10;79.10
8485;DHT22;34555;49.34829940;8.43506100;2022-08-18T04:51:43;25.10;79.10
8485;DHT22;34555;49.34829940;8.43506100;2022-08-18T04:54:09;25.10;79.40
8485;DHT22;34555;49.34829940;8.43506100;2022-08-18T04:56:38;25.10;79.50
8485;DHT22;34555;49.34829940;8.43506100;2022-08-18T04:59:05;25.10;79.50
8485;DHT22;34555;49.34829940;8.43506100;2022-08-18T05:01:40;25.10;79.50
8485;DHT22;34555;49.34829940;8.43506100;2022-08-18T05:04:06;25.10;79.50
8485;DHT22;34555;49.34829940;8.43506100;2022-08-18T05:06:33;25.10;79.50
8485;DHT22;34555;49.34829940;8.43506100;2022-08-18T05:09:02;25.10;79.50
8485;DHT22;34555;49.34829940;8.43506100;2022-08-18T05:11:30;25.10;79.50
8485;DHT22;34555;49.34829940;8.43506100;2022-08-18T05:14:00;25.10;79.50
8485;DHT22;34555;49.34829940;8.43506100;2022-08-18T05:16:29;25.00;79.50
8485;DHT22;34555;49.34829940;8.43506100;2022-08-18T05:19:01;25.10;79.50
8485;DHT22;34555;49.34829940;8.43506100;2022-08-18T05:21:29;25.10;79.50
8485;DHT22;34555;49.34829940;8.43506100;2022-08-18T05:23:54;25.10;79.50
8485;DHT22;34555;49.34829940;8.43506100;2022-08-18T05:26:20;25.10;79.50
8485;DHT22;34555;49.34829940;8.43506100;2022-08-18T05:28:46;25.10;79.50
8485;DHT22;34555;49.34829940;8.43506100;2022-08-18T05:31:14;25.20;79.70
8485;DHT22;34555;49.34829940;8.43506100;2022-08-18T05:33:40;25.10;79.60
8485;DHT22;34555;49.34829940;8.43506100;2022-08-18T05:38:58;25.10;79.80
8485;DHT22;34555;49.34829940;8.43506100;2022-08-18T05:41:30;25.10;80.10
8485;DHT22;34555;49.34829940;8.43506100;2022-08-18T05:43:58;25.10;80.10
8485;DHT22;34555;49.34829940;8.43506100;2022-08-18T05:46:42;25.20;80.20
8485;DHT22;34555;49.34829940;8.43506100;2022-08-18T05:49:10;25.10;80.40
8485;DHT22;34555;49.34829940;8.43506100;2022-08-18T05:51:45;25.10;80.50
8485;DHT22;34555;49.34829940;8.43506100;2022-08-18T05:54:12;25.20;80.80
8485;DHT22;34555;49.34829940;8.43506100;2022-08-18T05:57:01;25.10;80.80
8485;DHT22;34555;49.34829940;8.43506100;2022-08-18T05:59:35;25.20;80.90
8485;DHT22;34555;49.34829940;8.43506100;2022-08-18T06:02:16;25.20;80.90
8485;DHT22;34555;49.34829940;8.43506100;2022-08-18T06:04:55;25.20;80.80
8485;DHT22;34555;49.34829940;8.43506100;2022-08-18T06:09:55;25.30;80.80
8485;DHT22;34555;49.34829940;8.43506100;2022-08-18T06:12:26;25.30;80.60
8485;DHT22;34555;49.34829940;8.43506100;2022-08-18T06:15:00;25.30;80.60
8485;DHT22;34555;49.34829940;8.43506100;2022-08-18T06:20:59;25.30;81.00
8485;DHT22;34555;49.34829940;8.43506100;2022-08-18T06:23:35;25.30;81.40
8485;DHT22;34555;49.34829940;8.43506100;2022-08-18T06:29:09;25.30;80.80
8485;DHT22;34555;49.34829940;8.43506100;2022-08-18T06:31:45;25.30;80.60
8485;DHT22;34555;49.34829940;8.43506100;2022-08-18T06:37:41;25.40;80.90
8485;DHT22;34555;49.34829940;8.43506100;2022-08-18T06:40:28;25.40;80.30
8485;DHT22;34555;49.34829940;8.43506100;2022-08-18T06:42:53;25.40;80.10
8485;DHT22;34555;49.34829940;8.43506100;2022-08-18T06:45:33;25.40;79.90
8485;DHT22;34555;49.34829940;8.43506100;2022-08-18T06:48:10;25.50;79.80
8485;DHT22;34555;49.34829940;8.43506100;2022-08-18T06:50:46;25.40;79.70
8485;DHT22;34555;49.34829940;8.43506100;2022-08-18T06:53:13;25.50;79.80
8485;DHT22;34555;49.34829940;8.43506100;2022-08-18T06:55:45;25.50;79.80
8485;DHT22;34555;49.34829940;8.43506100;2022-08-18T07:01:00;25.50;79.70
8485;DHT22;34555;49.34829940;8.43506100;2022-08-18T07:06:08;25.50;79.80
8485;DHT22;34555;49.34829940;8.43506100;2022-08-18T07:08:41;25.50;79.50
8485;DHT22;34555;49.34829940;8.43506100;2022-08-18T07:11:24;25.50;79.40
8485;DHT22;34555;49.34829940;8.43506100;2022-08-18T07:14:14;25.30;83.30
8485;DHT22;34555;49.34829940;8.43506100;2022-08-18T07:16:42;25.00;85.80
8485;DHT22;34555;49.34829940;8.43506100;2022-08-18T07:19:14;24.90;88.10
8485;DHT22;34555;49.34829940;8.43506100;2022-08-18T07:21:42;24.70;90.30
8485;DHT22;34555;49.34829940;8.43506100;2022-08-18T07:24:10;24.70;90.60
8485;DHT22;34555;49.34829940;8.43506100;2022-08-18T07:29:37;24.90;91.70
8485;DHT22;34555;49.34829940;8.43506100;2022-08-18T07:32:08;24.70;91.80
8485;DHT22;34555;49.34829940;8.43506100;2022-08-18T07:34:42;24.70;92.20
8485;DHT22;34555;49.34829940;8.43506100;2022-08-18T07:37:20;24.50;92.80
8485;DHT22;34555;49.34829940;8.43506100;2022-08-18T07:39:54;24.70;92.40
8485;DHT22;34555;49.34829940;8.43506100;2022-08-18T07:45:05;24.70;93.20
8485;DHT22;34555;49.34829940;8.43506100;2022-08-18T07:47:40;24.70;92.90
8485;DHT22;34555;49.34829940;8.43506100;2022-08-18T07:50:09;24.70;93.00
8485;DHT22;34555;49.34829940;8.43506100;2022-08-18T07:52:39;24.60;93.10
8485;DHT22;34555;49.34829940;8.43506100;2022-08-18T08:00:19;24.40;94.70
8485;DHT22;34555;49.34829940;8.43506100;2022-08-18T08:02:51;24.70;93.40
8485;DHT22;34555;49.34829940;8.43506100;2022-08-18T08:08:29;25.20;91.10
8485;DHT22;34555;49.34829940;8.43506100;2022-08-18T08:11:07;25.20;90.40
8485;DHT22;34555;49.34829940;8.43506100;2022-08-18T08:14:00;25.30;90.00
8485;DHT22;34555;49.34829940;8.43506100;2022-08-18T08:16:50;25.30;89.50
8485;DHT22;34555;49.34829940;8.43506100;2022-08-18T08:22:09;25.30;88.30
8485;DHT22;34555;49.34829940;8.43506100;2022-08-18T08:24:51;25.30;88.10
8485;DHT22;34555;49.34829940;8.43506100;2022-08-18T08:30:13;25.30;87.50
8485;DHT22;34555;49.34829940;8.43506100;2022-08-18T08:38:13;25.30;86.70
8485;DHT22;34555;49.34829940;8.43506100;2022-08-18T08:40:48;25.30;86.50
8485;DHT22;34555;49.34829940;8.43506100;2022-08-18T08:43:31;25.30;86.20
8485;DHT22;34555;49.34829940;8.43506100;2022-08-18T08:46:22;25.30;86.00
8485;DHT22;34555;49.34829940;8.43506100;2022-08-18T08:48:55;25.30;85.80
8485;DHT22;34555;49.34829940;8.43506100;2022-08-18T08:51:39;25.30;85.60
8485;DHT22;34555;49.34829940;8.43506100;2022-08-18T08:54:09;25.30;85.30
8485;DHT22;34555;49.34829940;8.43506100;2022-08-18T08:56:43;25.30;85.20
8485;DHT22;34555;49.34829940;8.43506100;2022-08-18T08:59:12;25.30;85.00
8485;DHT22;34555;49.34829940;8.43506100;2022-08-18T09:15:58;25.40;84.10
8485;DHT22;34555;49.34829940;8.43506100;2022-08-18T09:18:33;25.40;84.00
8485;DHT22;34555;49.34829940;8.43506100;2022-08-18T09:24:05;25.40;83.50
8485;DHT22;34555;49.34829940;8.43506100;2022-08-18T09:29:45;25.40;83.20
8485;DHT22;34555;49.34829940;8.43506100;2022-08-18T09:37:49;25.30;88.80
8485;DHT22;34555;49.34829940;8.43506100;2022-08-18T09:40:55;25.30;90.00
8485;DHT22;34555;49.34829940;8.43506100;2022-08-18T09:51:48;25.70;89.80
8485;DHT22;34555;49.34829940;8.43506100;2022-08-18T09:54:17;25.70;90.10
8485;DHT22;34555;49.34829940;8.43506100;2022-08-18T10:01:59;25.70;91.10
8485;DHT22;34555;49.34829940;8.43506100;2022-08-18T10:04:28;25.80;91.10
8485;DHT22;34555;49.34829940;8.43506100;2022-08-18T10:07:13;25.80;91.30
8485;DHT22;34555;49.34829940;8.43506100;2022-08-18T10:17:42;25.90;91.20
8485;DHT22;34555;49.34829940;8.43506100;2022-08-18T10:22:54;26.00;91.10
8485;DHT22;34555;49.34829940;8.43506100;2022-08-18T10:25:42;26.00;91.10
8485;DHT22;34555;49.34829940;8.43506100;2022-08-18T10:29:06;26.00;91.30
8485;DHT22;34555;49.34829940;8.43506100;2022-08-18T10:31:06;26.00;91.00
8485;DHT22;34555;49.34829940;8.43506100;2022-08-18T10:33:56;25.90;91.20
8485;DHT22;34555;49.34829940;8.43506100;2022-08-18T10:39:16;25.90;91.00
8485;DHT22;34555;49.34829940;8.43506100;2022-08-18T10:42:12;25.90;91.10
8485;DHT22;34555;49.34829940;8.43506100;2022-08-18T10:44:47;25.90;91.20
8485;DHT22;34555;49.34829940;8.43506100;2022-08-18T10:47:27;25.80;92.20
8485;DHT22;34555;49.34829940;8.43506100;2022-08-18T10:49:54;24.80;97.20
8485;DHT22;34555;49.34829940;8.43506100;2022-08-18T11:04:01;24.30;99.90
8485;DHT22;34555;49.34829940;8.43506100;2022-08-18T11:06:28;24.20;99.90
8485;DHT22;34555;49.34829940;8.43506100;2022-08-18T11:09:00;24.10;99.90
8485;DHT22;34555;49.34829940;8.43506100;2022-08-18T11:11:41;24.20;99.90
8485;DHT22;34555;49.34829940;8.43506100;2022-08-18T11:19:40;23.90;99.90
8485;DHT22;34555;49.34829940;8.43506100;2022-08-18T11:24:47;24.00;99.90
8485;DHT22;34555;49.34829940;8.43506100;2022-08-18T11:27:20;23.90;99.90
8485;DHT22;34555;49.34829940;8.43506100;2022-08-18T11:29:46;23.80;99.90
8485;DHT22;34555;49.34829940;8.43506100;2022-08-18T11:32:29;23.90;99.90
8485;DHT22;34555;49.34829940;8.43506100;2022-08-18T11:35:00;23.90;99.90
8485;DHT22;34555;49.34829940;8.43506100;2022-08-18T11:37:33;23.90;99.90
8485;DHT22;34555;49.34829940;8.43506100;2022-08-18T11:40:01;24.00;99.90
8485;DHT22;34555;49.34829940;8.43506100;2022-08-18T11:42:33;24.00;99.90
8485;DHT22;34555;49.34829940;8.43506100;2022-08-18T11:45:16;24.00;99.90
8485;DHT22;34555;49.34829940;8.43506100;2022-08-18T11:50:46;24.00;99.90
8485;DHT22;34555;49.34829940;8.43506100;2022-08-18T11:53:15;24.00;99.90
8485;DHT22;34555;49.34829940;8.43506100;2022-08-18T11:56:02;24.00;99.90
8485;DHT22;34555;49.34829940;8.43506100;2022-08-18T11:58:44;24.20;99.90
8485;DHT22;34555;49.34829940;8.43506100;2022-08-18T12:06:40;24.10;99.90
8485;DHT22;34555;49.34829940;8.43506100;2022-08-18T12:12:06;24.00;99.90
8485;DHT22;34555;49.34829940;8.43506100;2022-08-18T12:15:24;23.90;99.90
8485;DHT22;34555;49.34829940;8.43506100;2022-08-18T12:17:50;23.90;99.90
8485;DHT22;34555;49.34829940;8.43506100;2022-08-18T12:20:17;24.00;99.90
8485;DHT22;34555;49.34829940;8.43506100;2022-08-18T12:22:44;24.00;99.90
8485;DHT22;34555;49.34829940;8.43506100;2022-08-18T12:25:14;24.30;99.90
8485;DHT22;34555;49.34829940;8.43506100;2022-08-18T12:27:40;24.70;99.90
8485;DHT22;34555;49.34829940;8.43506100;2022-08-18T12:30:07;24.90;99.60
8485;DHT22;34555;49.34829940;8.43506100;2022-08-18T12:32:34;25.00;98.60
8485;DHT22;34555;49.34829940;8.43506100;2022-08-18T12:35:00;25.20;97.80
8485;DHT22;34555;49.34829940;8.43506100;2022-08-18T12:37:27;25.30;97.00
8485;DHT22;34555;49.34829940;8.43506100;2022-08-18T12:39:55;25.40;96.40
8485;DHT22;34555;49.34829940;8.43506100;2022-08-18T12:42:21;25.50;95.90
8485;DHT22;34555;49.34829940;8.43506100;2022-08-18T12:44:47;25.60;95.70
8485;DHT22;34555;49.34829940;8.43506100;2022-08-18T12:47:18;25.60;95.40
8485;DHT22;34555;49.34829940;8.43506100;2022-08-18T12:49:45;25.70;95.20
8485;DHT22;34555;49.34829940;8.43506100;2022-08-18T12:52:11;25.70;94.90
8485;DHT22;34555;49.34829940;8.43506100;2022-08-18T12:54:37;25.70;94.60
8485;DHT22;34555;49.34829940;8.43506100;2022-08-18T12:57:06;25.70;94.50
8485;DHT22;34555;49.34829940;8.43506100;2022-08-18T12:59:33;25.70;94.20
8485;DHT22;34555;49.34829940;8.43506100;2022-08-18T13:02:00;25.70;94.00
8485;DHT22;34555;49.34829940;8.43506100;2022-08-18T13:04:26;25.70;93.80
8485;DHT22;34555;49.34829940;8.43506100;2022-08-18T13:06:55;25.80;93.70
8485;DHT22;34555;49.34829940;8.43506100;2022-08-18T13:09:21;25.80;93.30
8485;DHT22;34555;49.34829940;8.43506100;2022-08-18T13:11:47;25.90;93.20
8485;DHT22;34555;49.34829940;8.43506100;2022-08-18T13:14:13;25.90;93.00
8485;DHT22;34555;49.34829940;8.43506100;2022-08-18T13:16:43;26.00;93.00
8485;DHT22;34555;49.34829940;8.43506100;2022-08-18T13:19:11;26.00;92.60
8485;DHT22;34555;49.34829940;8.43506100;2022-08-18T13:21:38;26.00;92.50
8485;DHT22;34555;49.34829940;8.43506100;2022-08-18T13:24:04;26.10;92.40
8485;DHT22;34555;49.34829940;8.43506100;2022-08-18T13:26:33;26.20;92.20
8485;DHT22;34555;49.34829940;8.43506100;2022-08-18T13:29:01;26.30;91.70
8485;DHT22;34555;49.34829940;8.43506100;2022-08-18T13:31:27;26.30;91.50
8485;DHT22;34555;49.34829940;8.43506100;2022-08-18T13:33:55;26.30;91.40
8485;DHT22;34555;49.34829940;8.43506100;2022-08-18T13:36:22;26.40;91.20
8485;DHT22;34555;49.34829940;8.43506100;2022-08-18T13:38:48;26.40;91.00
8485;DHT22;34555;49.34829940;8.43506100;2022-08-18T13:41:14;26.40;90.90
8485;DHT22;34555;49.34829940;8.43506100;2022-08-18T13:43:42;26.40;90.90
8485;DHT22;34555;49.34829940;8.43506100;2022-08-18T13:46:10;26.50;90.80
8485;DHT22;34555;49.34829940;8.43506100;2022-08-18T13:48:36;26.50;90.60
8485;DHT22;34555;49.34829940;8.43506100;2022-08-18T13:51:03;26.60;90.40
8485;DHT22;34555;49.34829940;8.43506100;2022-08-18T13:53:30;26.60;90.20
8485;DHT22;34555;49.34829940;8.43506100;2022-08-18T13:55:56;26.60;90.10
8485;DHT22;34555;49.34829940;8.43506100;2022-08-18T13:58:26;26.70;89.90
8485;DHT22;34555;49.34829940;8.43506100;2022-08-18T14:00:56;26.70;89.60
8485;DHT22;34555;49.34829940;8.43506100;2022-08-18T14:03:22;26.70;89.40
8485;DHT22;34555;49.34829940;8.43506100;2022-08-18T14:05:49;26.70;89.10
8485;DHT22;34555;49.34829940;8.43506100;2022-08-18T14:08:14;26.70;88.80
8485;DHT22;34555;49.34829940;8.43506100;2022-08-18T14:10:40;26.70;88.50
8485;DHT22;34555;49.34829940;8.43506100;2022-08-18T14:13:06;26.70;88.30
8485;DHT22;34555;49.34829940;8.43506100;2022-08-18T14:15:32;26.80;88.20
8485;DHT22;34555;49.34829940;8.43506100;2022-08-18T14:18:02;26.70;88.10
8485;DHT22;34555;49.34829940;8.43506100;2022-08-18T14:20:28;26.80;87.90
8485;DHT22;34555;49.34829940;8.43506100;2022-08-18T14:23:12;26.80;87.90
8485;DHT22;34555;49.34829940;8.43506100;2022-08-18T14:25:56;26.80;87.90
8485;DHT22;34555;49.34829940;8.43506100;2022-08-18T14:28:42;26.80;87.80
8485;DHT22;34555;49.34829940;8.43506100;2022-08-18T14:31:07;26.80;87.50
8485;DHT22;34555;49.34829940;8.43506100;2022-08-18T14:33:33;26.80;87.40
8485;DHT22;34555;49.34829940;8.43506100;2022-08-18T14:36:02;26.80;87.20
8485;DHT22;34555;49.34829940;8.43506100;2022-08-18T14:38:30;26.80;87.10
8485;DHT22;34555;49.34829940;8.43506100;2022-08-18T14:40:56;26.80;86.80
8485;DHT22;34555;49.34829940;8.43506100;2022-08-18T14:43:21;26.90;86.70
8485;DHT22;34555;49.34829940;8.43506100;2022-08-18T14:45:48;26.90;86.50
8485;DHT22;34555;49.34829940;8.43506100;2022-08-18T14:48:16;26.90;86.30
8485;DHT22;34555;49.34829940;8.43506100;2022-08-18T14:50:45;26.80;86.40
8485;DHT22;34555;49.34829940;8.43506100;2022-08-18T14:53:13;26.90;86.40
8485;DHT22;34555;49.34829940;8.43506100;2022-08-18T14:55:39;26.90;85.90
8485;DHT22;34555;49.34829940;8.43506100;2022-08-18T14:58:04;26.90;85.80
8485;DHT22;34555;49.34829940;8.43506100;2022-08-18T15:00:30;26.90;85.90
8485;DHT22;34555;49.34829940;8.43506100;2022-08-18T15:02:56;26.90;86.20
8485;DHT22;34555;49.34829940;8.43506100;2022-08-18T15:05:22;26.90;85.80
8485;DHT22;34555;49.34829940;8.43506100;2022-08-18T15:07:48;26.80;85.80
8485;DHT22;34555;49.34829940;8.43506100;2022-08-18T15:10:14;26.90;85.90
8485;DHT22;34555;49.34829940;8.43506100;2022-08-18T15:12:40;26.80;85.50
8485;DHT22;34555;49.34829940;8.43506100;2022-08-18T15:15:08;26.80;85.80
8485;DHT22;34555;49.34829940;8.43506100;2022-08-18T15:17:36;26.80;85.50
8485;DHT22;34555;49.34829940;8.43506100;2022-08-18T15:20:04;26.90;85.20
8485;DHT22;34555;49.34829940;8.43506100;2022-08-18T15:22:30;26.90;85.10
8485;DHT22;34555;49.34829940;8.43506100;2022-08-18T15:25:14;26.90;85.00
8485;DHT22;34555;49.34829940;8.43506100;2022-08-18T15:27:59;26.90;85.20
8485;DHT22;34555;49.34829940;8.43506100;2022-08-18T15:30:24;26.80;84.80
8485;DHT22;34555;49.34829940;8.43506100;2022-08-18T15:32:50;26.80;84.70
8485;DHT22;34555;49.34829940;8.43506100;2022-08-18T15:35:16;26.80;84.40
8485;DHT22;34555;49.34829940;8.43506100;2022-08-18T15:37:44;26.80;84.10
8485;DHT22;34555;49.34829940;8.43506100;2022-08-18T15:40:19;26.80;84.10
8485;DHT22;34555;49.34829940;8.43506100;2022-08-18T15:42:48;26.80;83.90
8485;DHT22;34555;49.34829940;8.43506100;2022-08-18T15:45:19;26.80;83.80
8485;DHT22;34555;49.34829940;8.43506100;2022-08-18T15:47:45;26.80;83.60
8485;DHT22;34555;49.34829940;8.43506100;2022-08-18T15:50:13;26.80;83.30
8485;DHT22;34555;49.34829940;8.43506100;2022-08-18T15:52:54;26.80;83.30
8485;DHT22;34555;49.34829940;8.43506100;2022-08-18T15:55:21;26.80;83.10
8485;DHT22;34555;49.34829940;8.43506100;2022-08-18T15:57:48;26.80;82.80
8485;DHT22;34555;49.34829940;8.43506100;2022-08-18T16:00:16;26.80;82.60
8485;DHT22;34555;49.34829940;8.43506100;2022-08-18T16:02:49;26.80;82.50
8485;DHT22;34555;49.34829940;8.43506100;2022-08-18T16:05:16;26.80;82.40
8485;DHT22;34555;49.34829940;8.43506100;2022-08-18T16:07:42;26.80;83.00